createdAt,value
2019-04-14T00:07:44.928Z,102349.08
2019-04-14T00:10:11.965Z,102340.98
2019-04-14T00:12:40.829Z,102337.85
2019-04-14T00:15:23.324Z,102343.44
2019-04-14T00:17:36.942Z,102341.86
2019-04-14T00:20:05.970Z,102333.59
2019-04-14T00:22:32.187Z,102339.41
2019-04-14T00:24:58.269Z,102331.23
2019-04-14T00:27:24.103Z,102334.56
2019-04-14T00:29:50.337Z,102325.97
2019-04-14T00:32:16.345Z,102332.17
2019-04-14T00:34:46.995Z,102324.04
2019-04-14T00:37:31.598Z,102319.50
2019-04-14T00:39:59.765Z,102319.17
2019-04-14T00:42:34.193Z,102320.66
2019-04-14T00:45:02.815Z,102318.61
2019-04-14T00:47:31.186Z,102316.16
2019-04-14T00:49:57.369Z,102318.95
2019-04-14T00:52:23.450Z,102319.33
2019-04-14T00:54:50.048Z,102321.03
2019-04-14T00:57:16.071Z,102315.59
2019-04-14T00:59:41.940Z,102323.08
2019-04-14T01:02:08.065Z,102323.08
2019-04-14T01:04:33.854Z,102317.73
2019-04-14T01:07:00.144Z,102320.41
2019-04-14T01:09:26.164Z,102319.82
2019-04-14T01:11:53.081Z,102316.41
2019-04-14T01:14:19.105Z,102316.69
2019-04-14T01:16:45.205Z,102318.86
2019-04-14T01:19:11.313Z,102318.48
2019-04-14T01:21:37.132Z,102320.03
2019-04-14T01:24:03.237Z,102322.27
2019-04-14T01:26:29.096Z,102324.56
2019-04-14T01:28:54.889Z,102327.23
2019-04-14T01:31:20.684Z,102327.77
2019-04-14T01:33:47.000Z,102324.35
2019-04-14T01:36:13.003Z,102340.62
2019-04-14T01:38:38.783Z,102323.02
2019-04-14T01:41:06.442Z,102324.08
2019-04-14T01:43:32.401Z,102320.81
2019-04-14T01:46:08.014Z,102323.11
2019-04-14T01:48:25.924Z,102323.98
2019-04-14T01:51:11.313Z,102324.20
2019-04-14T01:53:42.240Z,102327.61
2019-04-14T01:56:12.767Z,102333.70
2019-04-14T01:58:40.524Z,102334.50
2019-04-14T02:01:08.480Z,102344.47
2019-04-14T02:03:37.309Z,102348.39
2019-04-14T02:06:04.550Z,102345.84
2019-04-14T02:08:30.881Z,102087.05
2019-04-14T02:10:56.708Z,102346.58
2019-04-14T02:13:22.593Z,102343.05
2019-04-14T02:15:48.598Z,102344.03
2019-04-14T02:18:14.432Z,102346.83
2019-04-14T02:20:40.388Z,102345.50
2019-04-14T02:23:06.245Z,102345.34
2019-04-14T02:25:32.042Z,102337.33
2019-04-14T02:27:58.231Z,102340.72
2019-04-14T02:30:30.763Z,102350.90
2019-04-14T02:35:59.695Z,102350.41
2019-04-14T02:38:23.196Z,102346.70
2019-04-14T02:43:13.699Z,102339.56
2019-04-14T02:50:32.507Z,102336.70
2019-04-14T02:53:01.554Z,102340.33
2019-04-14T02:55:21.237Z,102335.20
2019-04-14T02:57:52.140Z,102337.25
2019-04-14T03:00:24.027Z,102340.47
2019-04-14T03:02:53.472Z,102336.05
2019-04-14T03:05:21.837Z,102334.75
2019-04-14T03:07:51.559Z,102329.70
2019-04-14T03:10:18.569Z,102338.23
2019-04-14T03:12:54.599Z,102337.73
2019-04-14T03:15:22.177Z,102344.73
2019-04-14T03:22:51.752Z,102337.81
2019-04-14T03:28:17.648Z,102335.67
2019-04-14T03:31:17.778Z,102340.45
2019-04-14T03:36:30.362Z,102352.31
2019-04-14T03:38:55.002Z,102353.99
2019-04-14T03:41:13.748Z,102351.87
2019-04-14T03:43:38.836Z,102367.06
2019-04-14T03:49:17.835Z,102352.05
2019-04-14T03:51:40.522Z,102340.55
2019-04-14T03:54:09.686Z,102351.91
2019-04-14T03:56:49.310Z,102350.13
2019-04-14T03:59:23.843Z,102350.70
2019-04-14T04:02:11.758Z,102363.16
2019-04-14T04:07:34.365Z,102358.01
2019-04-14T04:10:14.003Z,102383.51
2019-04-14T04:12:44.282Z,102372.99
2019-04-14T04:15:10.529Z,102379.19
2019-04-14T04:17:38.749Z,102364.91
2019-04-14T04:20:10.926Z,102359.73
2019-04-14T04:22:39.012Z,102364.55
2019-04-14T04:25:16.163Z,102371.26
2019-04-14T04:27:59.067Z,102367.27
2019-04-14T04:30:27.624Z,102370.98
2019-04-14T04:33:04.517Z,102369.41
2019-04-14T04:35:34.999Z,102371.41
2019-04-14T04:38:03.028Z,102377.00
2019-04-14T04:40:31.201Z,102372.94
2019-04-14T04:42:57.194Z,102371.90
2019-04-14T04:45:23.516Z,102373.11
2019-04-14T04:47:49.367Z,102373.80
2019-04-14T04:50:15.155Z,102372.00
2019-04-14T04:52:40.933Z,102372.25
2019-04-14T04:55:06.851Z,102372.80
2019-04-14T04:57:32.842Z,102370.51
2019-04-14T04:59:58.616Z,102365.31
2019-04-14T05:02:24.500Z,102365.31
2019-04-14T05:04:50.632Z,102376.95
2019-04-14T05:07:16.730Z,102370.27
2019-04-14T05:09:57.717Z,102374.11
2019-04-14T05:12:28.384Z,102376.78
2019-04-14T05:15:03.542Z,102374.15
2019-04-14T05:17:43.684Z,102379.91
2019-04-14T05:20:09.645Z,102385.33
2019-04-14T05:22:35.480Z,102386.08
2019-04-14T05:25:01.500Z,102389.66
2019-04-14T05:27:27.652Z,102388.83
2019-04-14T05:29:53.678Z,102392.13
2019-04-14T05:32:19.508Z,102392.41
2019-04-14T05:34:45.447Z,102392.23
2019-04-14T05:37:11.730Z,102406.45
2019-04-14T05:39:37.577Z,102394.01
2019-04-14T05:42:10.725Z,102395.97
2019-04-14T05:44:31.848Z,102403.52
2019-04-14T05:46:57.940Z,102402.67
2019-04-14T05:49:31.527Z,102397.83
2019-04-14T05:51:52.417Z,102404.41
2019-04-14T05:54:18.572Z,102406.13
2019-04-14T05:56:44.728Z,102402.73
2019-04-14T05:59:11.364Z,102405.56
2019-04-14T06:01:37.278Z,102411.65
2019-04-14T06:04:03.159Z,102416.03
2019-04-14T06:06:28.964Z,102413.26
2019-04-14T06:08:54.736Z,102414.03
2019-04-14T06:11:20.526Z,102421.85
2019-04-14T06:13:46.303Z,102414.23
2019-04-14T06:16:12.091Z,102414.36
2019-04-14T06:18:37.871Z,102415.84
2019-04-14T06:21:03.676Z,102422.94
2019-04-14T06:23:29.457Z,102414.91
2019-04-14T06:25:55.233Z,102424.27
2019-04-14T06:28:21.039Z,102118.52
2019-04-14T06:31:05.312Z,102423.47
2019-04-14T06:33:33.011Z,102429.95
2019-04-14T06:36:09.559Z,102425.83
2019-04-14T06:38:37.258Z,102425.00
2019-04-14T06:41:04.940Z,102436.91
2019-04-14T06:43:30.743Z,102431.45
2019-04-14T06:45:56.523Z,102434.59
2019-04-14T06:48:22.312Z,102435.96
2019-04-14T06:50:48.087Z,102430.95
2019-04-14T06:53:13.902Z,102434.44
2019-04-14T06:55:39.651Z,102440.16
2019-04-14T06:58:05.444Z,102438.44
2019-04-14T07:00:31.226Z,102429.66
2019-04-14T07:02:57.127Z,102426.88
2019-04-14T07:05:22.910Z,102432.09
2019-04-14T07:07:57.048Z,102433.07
2019-04-14T07:10:16.395Z,102430.99
2019-04-14T07:12:43.181Z,102435.03
2019-04-14T07:15:09.478Z,102442.89
2019-04-14T07:17:35.276Z,102438.36
2019-04-14T07:20:02.597Z,102441.05
2019-04-14T07:22:28.573Z,102448.83
2019-04-14T07:24:54.350Z,102447.98
2019-04-14T07:27:20.134Z,102446.51
2019-04-14T07:30:00.771Z,102446.50
2019-04-14T07:32:31.080Z,102447.11
2019-04-14T07:35:15.210Z,102451.95
2019-04-14T07:37:48.815Z,102449.97
2019-04-14T07:40:25.411Z,102456.31
2019-04-14T07:42:53.125Z,102455.91
2019-04-14T07:45:20.811Z,102463.05
2019-04-14T07:47:54.350Z,102459.68
2019-04-14T07:50:22.037Z,102439.02
2019-04-14T07:53:07.944Z,102463.03
2019-04-14T07:55:41.717Z,102462.98
2019-04-14T07:58:09.414Z,102463.77
2019-04-14T08:00:37.108Z,102463.25
2019-04-14T08:03:13.871Z,102466.30
2019-04-14T08:05:41.157Z,102463.39
2019-04-14T08:08:07.034Z,102469.12
2019-04-14T08:10:32.824Z,102446.98
2019-04-14T08:12:58.605Z,102462.92
2019-04-14T08:15:24.394Z,102467.49
2019-04-14T08:17:50.219Z,102455.32
2019-04-14T08:20:26.737Z,102455.32
2019-04-14T08:22:43.691Z,102465.78
2019-04-14T08:25:09.455Z,102462.83
2019-04-14T08:27:35.245Z,102457.96
2019-04-14T08:30:01.048Z,102461.45
2019-04-14T08:32:26.824Z,102465.76
2019-04-14T08:34:52.629Z,102472.77
2019-04-14T08:37:18.407Z,102470.17
2019-04-14T08:39:44.198Z,102469.30
2019-04-14T08:42:11.889Z,102461.25
2019-04-14T08:44:39.687Z,102467.59
2019-04-14T08:47:07.379Z,102470.84
2019-04-14T08:49:43.940Z,102471.03
2019-04-14T08:52:26.435Z,102471.03
2019-04-14T08:55:02.923Z,102478.33
2019-04-14T08:57:30.602Z,102476.17
2019-04-14T09:00:10.222Z,102475.13
2019-04-14T09:02:55.766Z,102476.09
2019-04-14T09:05:40.277Z,102475.81
2019-04-14T09:08:10.776Z,102478.08
2019-04-14T09:10:56.349Z,102474.73
2019-04-14T09:13:22.146Z,102463.45
2019-04-14T09:15:47.941Z,102463.45
2019-04-14T09:18:13.727Z,102471.25
2019-04-14T09:20:51.372Z,102471.38
2019-04-14T09:23:07.206Z,102477.05
2019-04-14T09:25:33.201Z,102477.92
2019-04-14T09:27:58.994Z,102473.05
2019-04-14T09:30:25.598Z,102476.98
2019-04-14T09:32:55.033Z,102476.98
2019-04-14T09:44:47.508Z,102478.60
2019-04-14T09:51:16.369Z,102485.23
2019-04-14T09:54:07.516Z,102501.56
2019-04-14T09:57:04.178Z,102504.51
2019-04-14T09:59:46.065Z,102491.99
2019-04-14T10:02:21.215Z,102510.06
2019-04-14T10:04:59.000Z,102506.45
2019-04-14T10:07:30.851Z,102501.17
2019-04-14T10:09:56.810Z,102508.52
2019-04-14T10:12:22.619Z,102500.99
2019-04-14T10:14:58.507Z,102506.45
2019-04-14T10:17:32.181Z,102509.78
2019-04-14T10:20:17.608Z,102511.62
2019-04-14T10:22:43.417Z,102513.17
2019-04-14T10:25:09.432Z,102512.68
2019-04-14T10:28:21.922Z,102501.01
2019-04-14T10:30:08.644Z,102506.52
2019-04-14T10:32:34.440Z,102515.67
2019-04-14T10:35:00.228Z,102507.59
2019-04-14T10:37:26.019Z,102507.23
2019-04-14T10:39:51.809Z,102508.56
2019-04-14T10:42:17.616Z,102506.52
2019-04-14T10:44:43.396Z,102511.13
2019-04-14T10:47:10.345Z,102502.75
2019-04-14T10:49:36.125Z,102503.95
2019-04-14T10:52:01.929Z,102510.77
2019-04-14T10:54:27.701Z,102503.08
2019-04-14T10:56:53.487Z,102512.22
2019-04-14T10:59:19.283Z,102511.83
2019-04-14T11:01:45.060Z,102506.25
2019-04-14T11:04:10.890Z,102499.77
2019-04-14T11:06:38.606Z,102508.06
2019-04-14T11:09:06.221Z,102512.44
2019-04-14T11:11:32.021Z,102512.67
2019-04-14T11:13:57.833Z,102504.13
2019-04-14T11:16:23.612Z,102508.86
2019-04-14T11:18:49.434Z,102513.25
2019-04-14T11:21:15.280Z,102507.80
2019-04-14T11:23:41.085Z,102506.95
2019-04-14T11:26:06.937Z,102513.16
2019-04-14T11:28:32.746Z,102501.58
2019-04-14T11:30:58.526Z,102502.52
2019-04-14T11:33:42.585Z,102497.53
2019-04-14T11:36:10.351Z,102509.21
2019-04-14T11:38:40.606Z,102498.20
2019-04-14T11:41:08.316Z,102498.70
2019-04-14T11:43:34.135Z,102502.45
2019-04-14T11:46:03.194Z,102504.10
2019-04-14T11:48:28.047Z,102496.05
2019-04-14T11:50:53.890Z,102504.86
2019-04-14T11:53:19.728Z,102515.63
2019-04-14T11:55:45.519Z,102502.20
2019-04-14T11:58:11.295Z,102515.31
2019-04-14T12:00:55.969Z,102507.48
2019-04-14T12:03:23.660Z,102511.53
2019-04-14T12:05:57.407Z,102514.30
2019-04-14T12:08:34.146Z,102511.91
2019-04-14T12:11:00.365Z,102513.07
2019-04-14T12:13:26.152Z,102514.63
2019-04-14T12:15:51.994Z,102514.08
2019-04-14T12:18:17.796Z,102512.92
2019-04-14T12:20:43.618Z,102511.22
2019-04-14T12:23:09.428Z,102518.01
2019-04-14T12:25:35.259Z,102516.52
2019-04-14T12:28:01.059Z,102515.25
2019-04-14T12:30:26.958Z,102517.80
2019-04-14T12:32:52.742Z,102515.47
2019-04-14T12:35:18.760Z,102514.23
2019-04-14T12:37:44.558Z,102514.23
2019-04-14T12:40:10.547Z,102517.25
2019-04-14T12:42:38.353Z,102515.49
2019-04-14T12:45:12.819Z,102506.59
2019-04-14T12:47:43.029Z,102527.27
2019-04-14T12:50:13.505Z,102519.13
2019-04-14T12:52:39.303Z,102523.16
2019-04-14T12:55:05.994Z,102521.28
2019-04-14T12:57:33.687Z,102522.91
2019-04-14T12:59:59.470Z,102515.80
2019-04-14T13:02:27.187Z,102511.19
2019-04-14T13:04:55.272Z,102509.23
2019-04-14T13:07:22.587Z,102513.03
2019-04-14T13:09:48.558Z,102513.22
2019-04-14T13:12:14.985Z,102513.55
2019-04-14T13:14:42.095Z,102512.89
2019-04-14T13:17:10.179Z,102517.75
2019-04-14T13:19:36.060Z,102516.12
2019-04-14T13:22:01.893Z,102509.82
2019-04-14T13:24:27.793Z,102506.56
2019-04-14T13:26:53.602Z,102505.91
2019-04-14T13:29:19.459Z,102512.93
2019-04-14T13:31:46.098Z,102508.27
2019-04-14T13:34:11.927Z,102511.13
2019-04-14T13:36:37.751Z,102499.11
2019-04-14T13:39:05.341Z,102508.27
2019-04-14T13:41:31.149Z,102500.45
2019-04-14T13:43:56.938Z,102504.34
2019-04-14T13:46:22.765Z,102506.20
2019-04-14T13:48:48.542Z,102502.95
2019-04-14T13:51:14.347Z,102498.75
2019-04-14T13:53:40.229Z,102499.80
2019-04-14T13:56:06.055Z,102503.50
2019-04-14T13:58:31.863Z,102495.99
2019-04-14T14:00:57.647Z,102498.23
2019-04-14T14:03:23.431Z,102500.78
2019-04-14T14:05:49.208Z,102501.35
2019-04-14T14:08:15.006Z,102508.37
2019-04-14T14:10:40.796Z,102496.45
2019-04-14T14:13:14.728Z,102496.45
2019-04-14T14:15:58.812Z,102500.75
2019-04-14T14:18:44.664Z,102493.50
2019-04-14T14:21:12.356Z,102501.50
2019-04-14T14:23:45.910Z,102500.42
2019-04-14T14:26:13.601Z,102497.95
2019-04-14T14:28:42.313Z,102500.06
2019-04-14T14:31:08.102Z,102490.67
2019-04-14T14:33:33.904Z,102422.14
2019-04-14T14:35:59.697Z,102500.02
2019-04-14T14:38:25.604Z,102497.45
2019-04-14T14:40:51.985Z,102487.23
2019-04-14T14:43:17.785Z,102492.03
2019-04-14T14:45:45.504Z,102495.30
2019-04-14T14:48:13.210Z,102488.19
2019-04-14T14:50:41.350Z,102486.20
2019-04-14T14:53:12.259Z,102493.17
2019-04-14T14:55:36.679Z,102488.64
2019-04-14T14:58:02.572Z,102488.64
2019-04-14T15:00:30.252Z,102499.19
2019-04-14T15:02:56.054Z,102489.61
2019-04-14T15:05:21.843Z,102497.41
2019-04-14T15:07:47.643Z,102501.05
2019-04-14T15:10:13.690Z,102501.69
2019-04-14T15:12:39.567Z,102498.20
2019-04-14T15:15:05.563Z,102494.95
2019-04-14T15:17:31.392Z,102497.50
2019-04-14T15:19:57.190Z,102500.87
2019-04-14T15:22:22.972Z,102494.75
2019-04-14T15:24:48.767Z,102488.14
2019-04-14T15:27:14.666Z,102495.15
2019-04-14T15:29:40.469Z,102491.40
2019-04-14T15:32:06.250Z,102494.89
2019-04-14T15:34:32.078Z,102495.80
2019-04-14T15:36:57.863Z,102493.40
2019-04-14T15:39:23.680Z,102489.90
2019-04-14T15:41:49.447Z,102500.83
2019-04-14T15:44:15.249Z,102495.64
2019-04-14T15:46:41.032Z,102500.61
2019-04-14T15:49:06.833Z,102498.19
2019-04-14T15:51:32.609Z,102495.78
2019-04-14T15:53:58.421Z,102501.05
2019-04-14T15:56:34.671Z,102499.34
2019-04-14T15:59:11.245Z,102498.75
2019-04-14T16:01:53.720Z,102498.28
2019-04-14T16:04:24.077Z,102494.95
2019-04-14T16:06:51.779Z,102489.90
2019-04-14T16:09:31.313Z,102502.23
2019-04-14T16:11:59.009Z,102503.05
2019-04-14T16:14:35.703Z,102499.38
2019-04-14T16:17:10.077Z,102495.82
2019-04-14T16:19:43.700Z,102495.82
2019-04-14T16:22:09.487Z,102506.46
2019-04-14T16:24:35.283Z,102506.46
2019-04-14T16:27:19.539Z,102507.09
2019-04-14T16:29:47.240Z,102504.82
2019-04-14T16:32:27.082Z,102503.74
2019-04-14T16:34:54.784Z,102506.64
2019-04-14T16:37:20.587Z,102504.67
2019-04-14T16:39:46.391Z,102509.95
2019-04-14T16:42:12.183Z,102507.84
2019-04-14T16:44:37.964Z,102508.52
2019-04-14T16:47:04.356Z,102514.31
2019-04-14T16:49:30.148Z,102511.23
2019-04-14T16:52:03.544Z,102507.97
2019-04-14T16:54:49.425Z,102507.97
2019-04-14T16:57:29.405Z,102508.06
2019-04-14T16:59:55.241Z,102510.91
2019-04-14T17:02:21.035Z,102518.72
2019-04-14T17:04:46.807Z,102515.30
2019-04-14T17:07:12.630Z,102526.04
2019-04-14T17:09:38.508Z,102516.32
2019-04-14T17:12:04.299Z,102513.79
2019-04-14T17:14:32.002Z,102524.36
2019-04-14T17:17:08.718Z,102522.19
2019-04-14T17:19:36.442Z,102520.55
2019-04-14T17:22:06.918Z,102528.25
2019-04-14T17:24:37.543Z,102258.33
2019-04-14T17:29:54.945Z,102536.45
2019-04-14T17:39:03.516Z,102547.11
2019-04-14T17:44:56.213Z,102557.91
2019-04-14T17:51:08.397Z,102549.52
2019-04-14T17:54:00.894Z,102544.31
2019-04-14T17:56:45.744Z,102555.30
2019-04-14T18:02:40.395Z,102562.25
2019-04-14T18:05:36.378Z,102572.87
2019-04-14T18:08:11.155Z,102568.48
2019-04-14T18:10:56.947Z,102572.03
2019-04-14T18:13:44.354Z,102565.93
2019-04-14T18:16:18.836Z,102581.05
2019-04-14T18:18:52.318Z,102581.05
2019-04-14T18:21:44.354Z,102578.14
2019-04-14T18:25:05.302Z,102570.48
2019-04-14T18:26:51.243Z,102585.09
2019-04-14T18:29:27.865Z,102586.69
2019-04-14T18:32:21.527Z,102594.88
2019-04-14T18:35:07.261Z,102588.88
2019-04-14T18:40:58.682Z,102544.42
2019-04-14T18:43:49.346Z,102599.11
2019-04-14T18:49:52.849Z,102614.02
2019-04-14T18:52:26.959Z,102616.69
2019-04-14T18:55:46.796Z,102615.72
2019-04-14T18:58:29.327Z,102625.12
2019-04-14T19:01:04.898Z,102624.98
2019-04-14T19:03:34.630Z,102630.95
2019-04-14T19:06:31.665Z,102387.13
2019-04-14T19:09:07.687Z,102641.45
2019-04-14T19:11:59.761Z,102646.20
2019-04-14T19:14:27.535Z,102641.82
2019-04-14T19:17:00.290Z,102641.21
2019-04-14T19:19:33.049Z,102520.45
2019-04-14T19:22:15.104Z,102652.29
2019-04-14T19:26:31.587Z,102650.72
2019-04-14T19:33:52.234Z,102637.67
2019-04-14T19:36:35.092Z,102662.65
2019-04-14T19:41:53.536Z,102657.42
2019-04-14T19:50:05.468Z,102675.43
2019-04-14T19:52:53.263Z,102674.82
2019-04-14T19:55:21.026Z,102680.55
2019-04-14T19:57:55.512Z,102679.58
2019-04-14T20:00:46.203Z,102683.84
2019-04-14T20:02:57.495Z,102677.13
2019-04-14T20:05:27.847Z,102696.13
2019-04-14T20:08:06.705Z,102686.38
2019-04-14T20:10:37.453Z,102695.17
2019-04-14T20:13:05.334Z,102696.75
2019-04-14T20:15:33.376Z,102669.56
2019-04-14T20:18:10.050Z,102702.62
2019-04-14T20:20:47.292Z,102700.17
2019-04-14T20:23:34.825Z,102694.95
2019-04-14T20:26:19.167Z,102452.09
2019-04-14T20:28:46.857Z,102704.80
2019-04-14T20:31:31.445Z,102699.11
2019-04-14T20:33:57.305Z,102701.88
2019-04-14T20:36:23.104Z,102697.38
2019-04-14T20:38:48.901Z,102693.70
2019-04-14T20:41:14.678Z,102697.48
2019-04-14T20:43:40.576Z,102697.49
2019-04-14T20:46:06.367Z,102695.67
2019-04-14T20:48:32.145Z,102706.62
2019-04-14T20:50:57.936Z,102699.42
2019-04-14T20:53:25.218Z,102707.00
2019-04-14T20:55:51.217Z,102710.28
2019-04-14T20:58:16.997Z,102713.20
2019-04-14T21:00:42.793Z,102713.93
2019-04-14T21:03:28.319Z,102711.02
2019-04-14T21:05:56.038Z,102718.56
2019-04-14T21:08:23.731Z,102406.47
2019-04-14T21:10:51.540Z,102719.05
2019-04-14T21:13:22.001Z,102725.63
